Time;durP1;ratioP1;P1;durP2;ratioP2;P2;SDS_P1;SDS_P2;PMS_P1;PMS_P2;Temp;Humidity;BMP_temperature;BMP_pressure;BME280_temperature;BME280_humidity;BME280_pressure;Samples;Min_cycle;Max_cycle;Signal;HPM_P1;HPM_P2
2022/01/10 00:01:28;;;;;;;19.17;6.50;;;;;;;7.39;86.02;100577.22;7394990;19;20015;-67
2022/01/10 00:03:58;;;;;;;19.38;6.50;;;;;;;7.41;86.39;100580.53;7391003;19;20420;-67
2022/01/10 00:06:25;;;;;;;18.45;5.10;;;;;;;7.39;86.51;100586.84;7392428;19;20011;-67
2022/01/10 00:08:52;;;;;;;18.17;4.68;;;;;;;7.40;85.49;100593.75;7392935;19;20031;-66
2022/01/10 00:11:19;;;;;;;76.82;13.02;;;;;;;7.42;85.45;100594.41;7395805;19;20035;-68
2022/01/10 00:13:46;;;;;;;27.15;6.50;;;;;;;7.43;87.98;100591.66;7394923;19;20070;-67
2022/01/10 00:16:13;;;;;;;24.83;4.93;;;;;;;7.39;87.17;100590.31;7393609;19;20082;-66
2022/01/10 00:18:40;;;;;;;20.88;4.97;;;;;;;7.34;86.24;100594.28;7393391;19;20525;-66
2022/01/10 00:21:07;;;;;;;21.20;5.60;;;;;;;7.33;85.99;100596.09;7389947;19;20017;-67
2022/01/10 00:23:35;;;;;;;20.23;5.40;;;;;;;7.34;86.16;100599.53;7394216;19;20074;-67
2022/01/10 00:26:02;;;;;;;20.95;5.88;;;;;;;7.37;86.20;100599.25;7391924;19;20024;-66
2022/01/10 00:28:29;;;;;;;35.85;7.93;;;;;;;7.38;85.51;100608.75;7391431;19;20010;-67
2022/01/10 00:30:56;;;;;;;23.95;7.53;;;;;;;7.39;85.61;100615.66;7391208;19;20474;-68
2022/01/10 00:33:23;;;;;;;15.13;4.93;;;;;;;7.36;85.66;100621.16;7391661;19;20018;-68
2022/01/10 00:35:50;;;;;;;34.67;10.80;;;;;;;7.33;85.94;100624.88;7239754;19;2974178;-67
2022/01/10 00:38:19;;;;;;;27.30;7.03;;;;;;;7.35;87.13;100633.41;7393669;19;20014;-67
2022/01/10 00:40:59;;;;;;;18.13;4.75;;;;;;;7.28;86.46;100640.16;7396505;19;20120;-68
2022/01/10 00:43:40;;;;;;;15.00;4.82;;;;;;;7.22;85.64;100649.38;7392970;19;20472;-68
2022/01/10 00:46:22;;;;;;;19.63;4.80;;;;;;;7.19;85.33;100643.59;7397912;19;20487;-68
2022/01/10 00:48:51;;;;;;;16.75;4.90;;;;;;;7.20;85.86;100647.88;7393591;19;20003;-66
2022/01/10 00:51:18;;;;;;;24.33;5.78;;;;;;;7.22;86.60;100653.78;7392680;19;20034;-67
2022/01/10 00:53:48;;;;;;;21.33;6.80;;;;;;;7.25;87.08;100671.84;7395958;19;20011;-66
2022/01/10 00:56:15;;;;;;;17.42;5.10;;;;;;;7.25;86.75;100670.06;7393961;19;20013;-67
2022/01/10 00:58:42;;;;;;;24.45;4.93;;;;;;;7.25;86.44;100671.84;7396648;19;20103;-66
2022/01/10 01:01:09;;;;;;;22.45;4.20;;;;;;;7.21;86.05;100673.88;7392224;19;20019;-66
2022/01/10 01:03:37;;;;;;;14.30;3.63;;;;;;;7.16;85.91;100672.66;7392300;19;20023;-66
2022/01/10 01:06:04;;;;;;;15.90;4.45;;;;;;;7.12;86.24;100679.09;7393909;19;20011;-67
2022/01/10 01:08:33;;;;;;;17.40;3.90;;;;;;;7.09;86.42;100688.03;7392838;19;20011;-66
2022/01/10 01:13:59;;;;;;;13.73;3.40;;;;;;;7.12;86.59;100689.56;7392784;19;20082;-66
2022/01/10 01:24:33;;;;;;;74.95;10.52;;;;;;;7.16;87.20;100702.22;7392572;19;20087;-67
2022/01/10 01:27:00;;;;;;;20.88;5.65;;;;;;;7.20;87.92;100710.66;7391912;19;20535;-67
2022/01/10 01:29:29;;;;;;;11.65;4.38;;;;;;;7.19;87.25;100703.75;7392341;19;20101;-67
2022/01/10 01:31:56;;;;;;;18.10;4.28;;;;;;;7.15;86.71;100711.06;7392318;19;20188;-68
2022/01/10 01:34:24;;;;;;;13.63;2.90;;;;;;;7.13;86.42;100712.13;7393522;19;20027;-68
2022/01/10 01:36:55;;;;;;;19.83;4.47;;;;;;;7.12;86.70;100719.16;7391444;19;20024;-68
2022/01/10 01:39:24;;;;;;;14.57;3.95;;;;;;;7.10;87.05;100726.31;7395759;19;20128;-68
2022/01/10 01:41:56;;;;;;;14.73;3.10;;;;;;;7.11;87.19;100740.25;7391113;19;20022;-69
2022/01/10 01:44:23;;;;;;;18.30;5.18;;;;;;;7.07;87.23;100744.88;7395432;19;20017;-66
2022/01/10 01:46:50;;;;;;;18.48;3.28;;;;;;;7.07;87.54;100747.50;7392042;19;20502;-68
2022/01/10 01:49:19;;;;;;;13.88;3.53;;;;;;;7.05;87.37;100748.63;7391387;19;20029;-66
2022/01/10 01:51:54;;;;;;;16.25;3.97;;;;;;;7.00;87.15;100745.56;7392211;19;20015;-68
2022/01/10 01:54:28;;;;;;;16.65;4.35;;;;;;;6.99;87.13;100749.13;7394555;19;20038;-66
2022/01/10 01:57:04;;;;;;;16.90;3.72;;;;;;;7.00;87.43;100761.25;7389604;19;20030;-67
2022/01/10 01:59:33;;;;;;;19.77;5.47;;;;;;;7.00;87.68;100764.69;7389710;19;20070;-66
2022/01/10 02:01:59;;;;;;;38.33;10.63;;;;;;;7.04;88.17;100768.72;7390474;19;20490;-66
2022/01/10 02:04:26;;;;;;;24.60;4.43;;;;;;;7.09;89.18;100773.53;7390659;19;20106;-68
2022/01/10 02:06:53;;;;;;;12.52;3.15;;;;;;;7.10;88.71;100783.88;7390919;19;20006;-65
2022/01/10 02:09:20;;;;;;;23.42;3.83;;;;;;;7.09;88.28;100787.44;7391109;19;20009;-66
2022/01/10 02:11:47;;;;;;;18.70;3.72;;;;;;;7.06;88.07;100790.31;7393933;19;20027;-69
2022/01/10 02:14:18;;;;;;;20.48;4.78;;;;;;;7.09;88.42;100792.69;7392857;19;20010;-67
2022/01/10 02:16:55;;;;;;;18.42;3.88;;;;;;;7.10;87.87;100796.97;7393836;19;20424;-67
2022/01/10 02:19:25;;;;;;;16.60;3.47;;;;;;;7.12;88.03;100789.78;7391163;19;20132;-66
2022/01/10 02:21:52;;;;;;;22.27;4.30;;;;;;;7.10;87.98;100785.66;7392565;19;20011;-66
2022/01/10 02:24:20;;;;;;;34.78;7.60;;;;;;;7.10;88.20;100789.13;7393861;19;20015;-70
2022/01/10 02:26:48;;;;;;;15.63;4.10;;;;;;;7.13;88.88;100791.44;7390700;19;20740;-66
2022/01/10 02:29:16;;;;;;;14.15;3.20;;;;;;;7.11;88.67;100790.75;7393532;19;20022;-66
2022/01/10 02:31:44;;;;;;;26.42;7.88;;;;;;;7.13;89.20;100796.69;7390701;19;20557;-67
2022/01/10 02:34:16;;;;;;;19.35;4.50;;;;;;;7.19;89.99;100795.34;7389277;19;20016;-67
2022/01/10 02:36:42;;;;;;;17.33;4.13;;;;;;;7.19;88.93;100797.94;7388564;19;20109;-67
2022/01/10 02:39:11;;;;;;;17.90;4.00;;;;;;;7.22;88.65;100802.91;7390638;19;20011;-67
2022/01/10 02:41:44;;;;;;;14.68;4.15;;;;;;;7.21;87.92;100811.75;7389625;19;20494;-67
2022/01/10 02:44:15;;;;;;;20.75;4.70;;;;;;;7.19;87.82;100816.25;7388152;19;20007;-65
2022/01/10 02:46:43;;;;;;;16.25;4.18;;;;;;;7.16;87.51;100812.09;7394331;19;20012;-66
2022/01/10 02:49:24;;;;;;;14.25;3.40;;;;;;;7.17;87.67;100812.94;7389641;19;20326;-66
2022/01/10 02:51:53;;;;;;;21.63;3.63;;;;;;;7.21;88.00;100817.78;7389276;19;20448;-66
2022/01/10 02:54:23;;;;;;;12.32;3.47;;;;;;;7.24;88.19;100822.75;7394237;19;20034;-67
2022/01/10 02:56:52;;;;;;;17.92;3.55;;;;;;;7.26;88.02;100831.28;7390333;19;20123;-66
2022/01/10 02:59:25;;;;;;;12.23;3.15;;;;;;;7.27;87.63;100840.81;7391011;19;20054;-66
2022/01/10 03:01:55;;;;;;;8.63;2.50;;;;;;;7.28;87.79;100845.09;7388686;19;20007;-66
2022/01/10 03:04:22;;;;;;;21.30;4.18;;;;;;;7.31;87.61;100857.09;7389569;19;20235;-67
2022/01/10 03:06:49;;;;;;;11.63;2.40;;;;;;;7.30;87.49;100858.88;7393437;19;20006;-67
2022/01/10 03:09:16;;;;;;;12.38;2.72;;;;;;;7.28;87.30;100862.56;7389022;19;20017;-67
2022/01/10 03:11:43;;;;;;;13.05;2.45;;;;;;;7.31;87.39;100860.50;7392514;19;20028;-67
2022/01/10 03:14:12;;;;;;;17.35;3.30;;;;;;;7.35;87.38;100866.34;7388040;19;20002;-68
2022/01/10 03:16:39;;;;;;;11.32;1.98;;;;;;;7.40;87.77;100856.28;7389469;19;20364;-66
2022/01/10 03:19:06;;;;;;;30.17;4.97;;;;;;;7.45;87.56;100858.50;7390919;19;20381;-66
2022/01/10 03:21:35;;;;;;;22.80;6.00;;;;;;;7.49;87.78;100852.88;7389794;19;20035;-67
2022/01/10 03:24:02;;;;;;;17.00;3.85;;;;;;;7.54;88.28;100862.94;7392450;19;20479;-65
2022/01/10 03:26:31;;;;;;;11.93;2.83;;;;;;;7.54;87.68;100865.56;7386671;19;20408;-68
2022/01/10 03:28:58;;;;;;;16.90;2.78;;;;;;;7.51;87.37;100869.28;7394145;19;20440;-67
2022/01/10 03:31:25;;;;;;;17.08;3.05;;;;;;;7.48;87.48;100866.94;7398422;19;20535;-67
2022/01/10 03:33:52;;;;;;;14.80;2.17;;;;;;;7.46;87.04;100870.66;7396447;19;20034;-67
2022/01/10 03:36:19;;;;;;;12.90;2.92;;;;;;;7.42;87.12;100875.28;7393904;19;20019;-66
2022/01/10 03:38:45;;;;;;;17.52;3.15;;;;;;;7.47;87.74;100880.13;7395323;19;20078;-67
2022/01/10 03:41:12;;;;;;;21.83;3.83;;;;;;;7.50;87.41;100872.88;7399369;19;20074;-68
2022/01/10 03:43:39;;;;;;;20.17;3.85;;;;;;;7.51;87.48;100877.16;7393819;19;20011;-67
2022/01/10 03:46:07;;;;;;;15.68;2.88;;;;;;;7.52;87.32;100880.56;7395466;19;20030;-67
2022/01/10 03:48:34;;;;;;;15.77;2.60;;;;;;;7.49;86.98;100884.28;7394780;19;20102;-67
2022/01/10 03:51:01;;;;;;;14.05;3.08;;;;;;;7.49;87.28;100886.06;7394818;19;20021;-67
2022/01/10 03:53:28;;;;;;;15.40;3.47;;;;;;;7.53;88.29;100895.31;7399610;19;20014;-67
2022/01/10 03:55:55;;;;;;;17.80;3.53;;;;;;;7.54;87.59;100889.13;7395390;19;20084;-66
2022/01/10 03:58:23;;;;;;;13.07;2.75;;;;;;;7.56;87.21;100905.53;7394573;19;20033;-66
2022/01/10 04:00:50;;;;;;;11.95;3.60;;;;;;;7.51;86.90;100907.72;7394478;19;20014;-66
2022/01/10 04:03:40;;;;;;;11.40;2.45;;;;;;;7.50;86.93;100908.69;7395768;19;20018;-66
2022/01/10 04:06:15;;;;;;;20.35;2.95;;;;;;;7.50;87.02;100899.03;7394298;19;20007;-67
2022/01/10 04:08:46;;;;;;;16.77;3.20;;;;;;;7.51;87.05;100897.25;7394831;19;20013;-67
2022/01/10 04:11:15;;;;;;;16.23;2.67;;;;;;;7.53;87.34;100892.69;7397139;19;20030;-66
2022/01/10 04:13:42;;;;;;;14.75;4.72;;;;;;;7.58;87.39;100898.38;7392977;19;20006;-67
2022/01/10 04:16:09;;;;;;;17.80;3.42;;;;;;;7.61;87.57;100896.34;7394869;19;20308;-67
2022/01/10 04:18:36;;;;;;;16.73;3.25;;;;;;;7.62;87.28;100889.28;7395800;19;20007;-68
2022/01/10 04:21:03;;;;;;;12.10;2.55;;;;;;;7.59;87.03;100903.50;7398226;19;20027;-66
2022/01/10 04:23:30;;;;;;;11.13;2.85;;;;;;;7.60;87.14;100909.56;7396136;19;20011;-66
2022/01/10 04:25:57;;;;;;;13.90;3.22;;;;;;;7.57;86.92;100918.47;7393848;19;20008;-67
2022/01/10 04:28:25;;;;;;;16.20;3.67;;;;;;;7.57;87.42;100925.50;7393730;19;20028;-67
2022/01/10 04:30:52;;;;;;;13.32;2.45;;;;;;;7.60;87.61;100927.88;7395063;19;20023;-67
2022/01/10 04:33:20;;;;;;;16.95;2.85;;;;;;;7.64;87.75;100934.50;7394169;19;20011;-67
2022/01/10 04:35:48;;;;;;;14.93;3.17;;;;;;;7.64;87.69;100939.75;7393371;19;20021;-67
2022/01/10 04:38:16;;;;;;;11.07;2.83;;;;;;;7.62;87.41;100942.47;7393803;19;20662;-68
2022/01/10 04:40:43;;;;;;;51.17;14.25;;;;;;;7.66;87.76;100945.69;7393232;19;20015;-66
2022/01/10 04:43:10;;;;;;;27.70;8.38;;;;;;;7.70;87.72;100954.94;7394392;19;20015;-67
2022/01/10 04:45:37;;;;;;;22.40;3.72;;;;;;;7.70;87.53;100947.09;7392665;19;20007;-66
2022/01/10 04:48:04;;;;;;;17.58;4.15;;;;;;;7.69;87.20;100942.81;7393205;19;20011;-66
2022/01/10 04:53:07;;;;;;;20.27;3.15;;;;;;;7.70;86.52;100949.69;7395392;19;20422;-66
2022/01/10 04:55:34;;;;;;;17.38;5.15;;;;;;;7.68;86.83;100956.84;7392822;19;20082;-66
2022/01/10 04:58:01;;;;;;;12.02;2.60;;;;;;;7.66;87.20;100959.63;7393144;19;20018;-66
2022/01/10 05:00:28;;;;;;;16.83;2.50;;;;;;;7.63;87.09;100966.88;7390776;19;20020;-65
2022/01/10 05:02:56;;;;;;;11.48;2.03;;;;;;;7.62;87.53;100963.44;7394992;19;20010;-68
2022/01/10 05:05:23;;;;;;;12.40;3.40;;;;;;;7.63;87.50;100974.75;7394053;19;20014;-67
2022/01/10 05:07:50;;;;;;;12.98;2.78;;;;;;;7.63;87.68;100988.66;7392637;19;20013;-66
2022/01/10 05:10:17;;;;;;;11.48;2.03;;;;;;;7.65;87.52;100992.00;7396505;19;20097;-67
2022/01/10 05:12:49;;;;;;;14.55;2.95;;;;;;;7.66;87.79;100993.66;7392463;19;20017;-66
2022/01/10 05:15:23;;;;;;;28.02;6.18;;;;;;;7.68;87.83;100994.34;7393715;19;20013;-67
2022/01/10 05:17:54;;;;;;;13.90;3.28;;;;;;;7.73;88.15;100999.19;7393115;19;20011;-67
2022/01/10 05:20:53;;;;;;;20.52;2.72;;;;;;;7.74;87.57;100998.22;7394687;19;20424;-66
2022/01/10 05:23:22;;;;;;;18.98;4.75;;;;;;;7.80;88.07;101009.97;7391596;19;20006;-67
2022/01/10 05:25:49;;;;;;;14.45;2.33;;;;;;;7.83;88.27;101014.94;7393909;19;20018;-66
2022/01/10 05:28:17;;;;;;;16.23;3.38;;;;;;;7.84;87.80;101027.09;7392543;19;20045;-66
2022/01/10 05:30:44;;;;;;;15.13;4.15;;;;;;;7.83;87.08;101022.78;7392693;19;20010;-66
2022/01/10 05:33:13;;;;;;;11.98;2.42;;;;;;;7.83;86.96;101022.78;7391945;19;20003;-67
2022/01/10 05:35:44;;;;;;;14.35;2.75;;;;;;;7.85;87.20;101029.59;7390437;19;20035;-67
2022/01/10 05:38:11;;;;;;;12.50;2.42;;;;;;;7.86;86.95;101033.88;7391880;19;20012;-67
2022/01/10 05:40:39;;;;;;;10.60;2.10;;;;;;;7.83;87.08;101031.50;7394629;19;20025;-67
2022/01/10 05:43:06;;;;;;;15.70;2.90;;;;;;;7.82;87.29;101034.25;7393537;19;20014;-67
2022/01/10 05:45:33;;;;;;;17.95;3.13;;;;;;;7.81;87.22;101036.03;7393423;19;20021;-67
2022/01/10 05:48:07;;;;;;;10.65;2.03;;;;;;;7.81;87.27;101043.06;7391065;19;20017;-66
2022/01/10 05:50:36;;;;;;;15.23;2.75;;;;;;;7.81;87.52;101056.16;7391372;19;20389;-66
2022/01/10 05:53:03;;;;;;;12.98;2.45;;;;;;;7.78;87.21;101059.84;7394274;19;20010;-66
2022/01/10 05:55:30;;;;;;;15.55;3.30;;;;;;;7.78;87.37;101066.88;7390955;19;20475;-66
2022/01/10 05:58:03;;;;;;;14.10;2.22;;;;;;;7.79;87.67;101066.75;7391338;19;20013;-66
2022/01/10 06:00:30;;;;;;;10.02;2.05;;;;;;;7.82;87.74;101073.53;7391028;19;20021;-68
2022/01/10 06:02:57;;;;;;;12.13;2.40;;;;;;;7.83;87.84;101080.41;7389982;19;20038;-67
2022/01/10 06:05:29;;;;;;;16.85;1.75;;;;;;;7.81;87.69;101077.94;7389105;19;20026;-66
2022/01/10 06:07:57;;;;;;;8.87;2.37;;;;;;;7.86;87.65;101077.56;7390723;19;20500;-67
2022/01/10 06:10:25;;;;;;;16.98;2.97;;;;;;;7.91;87.47;101078.84;7395154;19;20077;-68
2022/01/10 06:12:53;;;;;;;14.27;2.42;;;;;;;7.94;87.02;101088.22;7390712;19;20606;-67
2022/01/10 06:15:20;;;;;;;17.38;2.65;;;;;;;7.95;86.66;101088.09;7390863;19;20454;-68
2022/01/10 06:17:47;;;;;;;15.18;2.92;;;;;;;7.96;86.66;101096.78;7393537;19;20021;-67
2022/01/10 06:20:15;;;;;;;16.05;1.90;;;;;;;7.99;86.46;101101.75;7393516;19;20436;-67
2022/01/10 06:22:42;;;;;;;13.20;2.60;;;;;;;7.99;86.55;101094.72;7390166;19;20014;-67
2022/01/10 06:25:15;;;;;;;11.55;2.70;;;;;;;8.01;86.34;101103.31;7390658;19;20011;-67
2022/01/10 06:27:48;;;;;;;12.98;1.80;;;;;;;8.02;86.27;101117.22;7389630;19;20015;-67
2022/01/10 06:30:20;;;;;;;13.38;1.98;;;;;;;8.04;86.24;101124.00;7390733;19;20038;-67
2022/01/10 06:32:53;;;;;;;11.93;1.88;;;;;;;8.04;86.29;101131.84;7393897;19;20034;-67
2022/01/10 06:35:24;;;;;;;18.98;3.10;;;;;;;8.04;86.52;101136.25;7387889;19;20593;-66
2022/01/10 06:37:52;;;;;;;10.68;1.80;;;;;;;8.08;87.26;101138.50;7389868;19;20014;-66
2022/01/10 06:40:20;;;;;;;14.48;2.22;;;;;;;8.14;86.68;101134.53;7388916;19;20078;-66
2022/01/10 06:42:47;;;;;;;17.35;3.00;;;;;;;8.12;86.13;101139.09;7387971;19;20078;-66
2022/01/10 06:45:17;;;;;;;12.68;3.83;;;;;;;8.10;86.06;101143.59;7389896;19;20467;-66
2022/01/10 06:47:44;;;;;;;16.65;3.38;;;;;;;8.11;86.22;101153.97;7387912;19;20011;-68
2022/01/10 06:50:11;;;;;;;11.93;2.80;;;;;;;8.16;86.54;101164.06;7390315;19;20407;-67
2022/01/10 06:52:38;;;;;;;14.98;2.70;;;;;;;8.18;86.67;101167.38;7389990;19;20559;-68
2022/01/10 06:55:05;;;;;;;13.40;2.92;;;;;;;8.16;86.31;101174.53;7390253;19;20468;-66
2022/01/10 06:57:32;;;;;;;23.17;2.25;;;;;;;8.12;85.96;101181.00;7388057;19;20046;-67
2022/01/10 07:00:01;;;;;;;16.90;2.42;;;;;;;8.10;86.13;101190.78;7389517;19;20011;-66
2022/01/10 07:02:28;;;;;;;13.82;1.70;;;;;;;8.10;86.01;101183.75;7389492;19;20011;-67
2022/01/10 07:04:55;;;;;;;19.35;3.00;;;;;;;8.12;86.52;101189.72;7396852;19;20014;-66
2022/01/10 07:07:22;;;;;;;17.98;3.92;;;;;;;8.16;86.89;101193.72;7396083;19;20024;-70
2022/01/10 07:09:49;;;;;;;22.20;2.72;;;;;;;8.20;86.68;101183.81;7399676;19;20010;-68
2022/01/10 07:12:16;;;;;;;13.32;1.60;;;;;;;8.21;86.85;101185.47;7400494;19;20022;-68
2022/01/10 07:14:44;;;;;;;12.45;2.17;;;;;;;8.19;86.66;101192.63;7396215;19;20367;-66
2022/01/10 07:17:11;;;;;;;11.90;1.83;;;;;;;8.23;86.72;101193.22;7398625;19;20025;-67
2022/01/10 07:19:45;;;;;;;20.02;3.65;;;;;;;8.24;86.59;101189.63;7398534;19;20062;-66
2022/01/10 07:22:13;;;;;;;16.33;2.35;;;;;;;8.24;86.72;101190.44;7398630;19;20031;-67
2022/01/10 07:24:40;;;;;;;17.65;3.13;;;;;;;8.23;86.29;101199.25;7399140;19;20038;-68
2022/01/10 07:27:07;;;;;;;12.15;2.40;;;;;;;8.25;86.48;101201.75;7394448;19;20082;-68
2022/01/10 07:29:36;;;;;;;12.30;2.42;;;;;;;8.26;86.31;101206.06;7395796;19;20045;-67
2022/01/10 07:32:09;;;;;;;10.25;2.03;;;;;;;8.25;86.04;101212.25;7395864;19;20030;-66
2022/01/10 07:34:36;;;;;;;9.32;2.55;;;;;;;8.26;86.05;101211.28;7395127;19;20086;-67
2022/01/10 07:37:04;;;;;;;15.13;1.67;;;;;;;8.24;86.36;101224.53;7395827;19;20014;-67
2022/01/10 07:39:30;;;;;;;22.95;6.32;;;;;;;8.26;86.92;101232.25;7398730;19;20484;-66
2022/01/10 07:41:57;;;;;;;16.85;5.38;;;;;;;8.26;87.51;101233.09;7394668;19;20003;-66
2022/01/10 07:44:25;;;;;;;20.80;3.85;;;;;;;8.29;87.51;101248.56;7395283;19;20010;-68
2022/01/10 07:46:52;;;;;;;12.73;3.00;;;;;;;8.27;87.25;101247.88;7395634;19;20011;-68
2022/01/10 07:49:19;;;;;;;12.93;2.65;;;;;;;8.29;87.32;101247.72;7399085;19;20019;-67
2022/01/10 07:51:45;;;;;;;14.18;2.70;;;;;;;8.31;86.88;101270.28;7397135;19;20033;-67
2022/01/10 07:54:13;;;;;;;14.07;2.65;;;;;;;8.30;86.80;101279.09;7396857;19;20011;-69
2022/01/10 07:56:40;;;;;;;10.40;1.52;;;;;;;8.29;86.04;101293.13;7395152;19;20014;-68
2022/01/10 07:59:07;;;;;;;18.95;3.20;;;;;;;8.26;85.93;101288.16;7395010;19;20083;-67
2022/01/10 08:01:34;;;;;;;16.13;2.63;;;;;;;8.25;86.09;101296.13;7394441;19;20022;-66
2022/01/10 08:04:01;;;;;;;16.25;2.63;;;;;;;8.29;85.94;101289.66;7392252;19;20006;-68
2022/01/10 08:06:28;;;;;;;10.77;1.67;;;;;;;8.30;85.82;101305.31;7393001;19;20074;-66
2022/01/10 08:08:55;;;;;;;24.35;7.55;;;;;;;8.32;86.16;101306.03;7392795;19;20011;-68
2022/01/10 08:11:26;;;;;;;14.05;3.20;;;;;;;8.36;86.02;101303.97;7394277;19;20487;-68
2022/01/10 08:13:53;;;;;;;10.90;1.67;;;;;;;8.37;85.59;101300.41;7395433;19;20021;-67
2022/01/10 08:16:20;;;;;;;16.50;3.58;;;;;;;8.38;85.69;101317.81;7396525;19;20132;-68
2022/01/10 08:18:49;;;;;;;12.75;1.80;;;;;;;8.42;85.86;101311.34;7395445;19;20015;-66
2022/01/10 08:21:15;;;;;;;16.10;2.47;;;;;;;8.44;85.36;101310.25;7394704;19;20468;-67
2022/01/10 08:23:42;;;;;;;17.70;1.90;;;;;;;8.44;85.13;101306.78;7394444;19;20007;-67
2022/01/10 08:26:09;;;;;;;14.30;3.42;;;;;;;8.47;85.35;101311.78;7392829;19;20181;-67
2022/01/10 08:28:38;;;;;;;14.88;1.73;;;;;;;8.48;85.11;101313.47;7394564;19;20010;-67
2022/01/10 08:34:41;;;;;;;10.68;1.92;;;;;;;8.52;85.09;101336.69;7392592;19;20014;-67
2022/01/10 08:37:09;;;;;;;11.60;2.60;;;;;;;8.53;85.17;101340.94;7391693;19;20506;-67
2022/01/10 08:39:39;;;;;;;16.90;2.55;;;;;;;8.53;84.93;101335.69;7393128;19;20011;-68
2022/01/10 08:42:13;;;;;;;12.98;2.53;;;;;;;8.51;84.71;101340.25;7395015;19;20014;-68
2022/01/10 08:44:40;;;;;;;11.68;2.15;;;;;;;8.52;84.73;101341.91;7396543;19;20097;-65
2022/01/10 08:47:07;;;;;;;11.40;1.63;;;;;;;8.56;85.20;101343.31;7395555;19;20686;-66
2022/01/10 08:49:37;;;;;;;14.80;2.30;;;;;;;8.58;85.18;101345.84;7391985;19;20015;-66
2022/01/10 08:52:12;;;;;;;12.38;1.88;;;;;;;8.59;84.39;101347.47;7394199;19;20015;-66
2022/01/10 08:54:38;;;;;;;13.27;1.80;;;;;;;8.58;84.53;101349.25;7393240;19;20010;-67
2022/01/10 08:57:06;;;;;;;8.32;1.90;;;;;;;8.63;84.77;101350.69;7393234;19;20050;-68
2022/01/10 08:59:33;;;;;;;10.40;2.22;;;;;;;8.62;84.57;101355.09;7392569;19;20421;-67
2022/01/10 09:02:02;;;;;;;11.55;2.13;;;;;;;8.61;84.54;101355.22;7392947;19;20377;-67
2022/01/10 09:04:29;;;;;;;13.20;2.13;;;;;;;8.62;84.49;101354.25;7392525;19;20019;-66
2022/01/10 09:07:02;;;;;;;15.10;2.40;;;;;;;8.63;84.54;101358.56;7392941;19;20006;-66
2022/01/10 09:09:30;;;;;;;13.48;1.48;;;;;;;8.58;84.46;101365.00;7394222;19;20006;-66
2022/01/10 09:11:57;;;;;;;12.48;2.03;;;;;;;8.58;84.11;101372.06;7394062;19;20022;-66
2022/01/10 09:14:24;;;;;;;11.30;2.03;;;;;;;8.61;84.00;101379.66;7392937;19;20031;-68
2022/01/10 09:16:51;;;;;;;11.00;2.20;;;;;;;8.65;84.19;101385.47;7391482;19;20471;-68
2022/01/10 09:19:18;;;;;;;15.55;2.05;;;;;;;8.67;83.76;101391.44;7394413;19;20013;-68
2022/01/10 09:21:47;;;;;;;9.27;1.98;;;;;;;8.67;84.00;101394.06;7392716;19;20020;-68
2022/01/10 09:24:14;;;;;;;15.70;1.88;;;;;;;8.71;83.78;101384.97;7389712;19;20419;-66
2022/01/10 09:26:41;;;;;;;14.23;1.90;;;;;;;8.74;83.83;101393.41;7390977;19;20124;-68
2022/01/10 09:29:08;;;;;;;9.35;1.70;;;;;;;8.77;83.75;101395.81;7391697;19;20010;-68
2022/01/10 09:31:35;;;;;;;14.93;3.13;;;;;;;8.80;83.66;101389.44;7395057;19;20074;-68
2022/01/10 09:34:02;;;;;;;11.15;3.35;;;;;;;8.86;85.42;101389.78;7391595;19;20097;-67
2022/01/10 09:36:31;;;;;;;16.88;5.30;;;;;;;8.88;84.89;101397.53;7389982;19;20567;-68
2022/01/10 09:38:59;;;;;;;15.40;2.35;;;;;;;8.91;84.86;101400.72;7391666;19;20090;-66
2022/01/10 09:41:26;;;;;;;11.52;2.72;;;;;;;8.91;84.33;101407.75;7391117;19;20015;-70
2022/01/10 09:44:04;;;;;;;12.50;2.25;;;;;;;8.92;84.63;101410.28;7387817;19;20003;-68
2022/01/10 09:46:32;;;;;;;11.48;1.80;;;;;;;8.89;83.47;101412.28;7393964;19;20025;-66
2022/01/10 09:49:02;;;;;;;12.77;2.25;;;;;;;8.90;83.41;101414.81;7389827;19;20014;-68
2022/01/10 09:51:29;;;;;;;10.77;1.73;;;;;;;8.92;83.18;101427.81;7391405;19;20017;-68
2022/01/10 09:53:59;;;;;;;9.20;1.48;;;;;;;8.94;82.85;101425.88;7394119;19;20082;-69
2022/01/10 09:56:28;;;;;;;26.85;9.05;;;;;;;8.94;82.26;101434.56;7389177;19;20022;-67
2022/01/10 09:58:57;;;;;;;15.88;2.53;;;;;;;8.98;82.81;101435.19;7391276;19;20035;-67
2022/01/10 10:01:26;;;;;;;12.15;1.80;;;;;;;9.00;81.73;101449.81;7391618;19;20010;-66
2022/01/10 10:03:58;;;;;;;10.65;1.77;;;;;;;9.00;81.75;101447.19;7389149;19;20011;-67
2022/01/10 10:06:28;;;;;;;12.98;1.35;;;;;;;9.02;81.75;101444.44;7390799;19;20034;-67
2022/01/10 10:09:00;;;;;;;13.82;1.73;;;;;;;9.07;82.52;101446.69;7390788;19;20073;-69
2022/01/10 10:11:43;;;;;;;5.85;1.77;;;;;;;9.07;82.60;101438.81;7389010;19;20006;-69
2022/01/10 10:14:12;;;;;;;16.40;1.38;;;;;;;9.05;82.35;101449.44;7390735;19;20014;-66
2022/01/10 10:16:46;;;;;;;16.45;2.53;;;;;;;9.05;81.77;101448.59;7390948;19;20364;-69
2022/01/10 10:19:15;;;;;;;10.30;1.55;;;;;;;9.08;81.37;101453.63;7393175;19;20099;-67
2022/01/10 10:21:42;;;;;;;9.88;1.52;;;;;;;9.11;80.98;101453.34;7390612;19;20074;-70
2022/01/10 10:24:09;;;;;;;10.05;2.55;;;;;;;9.11;80.72;101455.97;7388222;19;20011;-66
2022/01/10 10:26:36;;;;;;;22.08;8.95;;;;;;;9.13;81.10;101454.91;7390220;19;20014;-66
2022/01/10 10:29:03;;;;;;;13.13;2.15;;;;;;;9.19;82.05;101456.19;7392556;19;20328;-67
2022/01/10 10:31:36;;;;;;;12.73;1.92;;;;;;;9.20;81.48;101463.06;7389930;19;20413;-66
2022/01/10 10:34:05;;;;;;;14.15;2.30;;;;;;;9.20;81.20;101461.28;7389726;19;20735;-66
2022/01/10 10:36:34;;;;;;;17.35;2.83;;;;;;;9.22;81.32;101469.03;7389981;19;20018;-67
2022/01/10 10:39:10;;;;;;;9.40;1.55;;;;;;;9.24;81.11;101477.63;7386318;19;20030;-66
2022/01/10 10:41:42;;;;;;;12.48;1.98;;;;;;;9.24;80.79;101483.72;7391006;19;20113;-68
2022/01/10 10:44:12;;;;;;;12.57;1.40;;;;;;;9.24;80.63;101488.97;7395381;19;20450;-67
2022/01/10 10:46:39;;;;;;;15.35;2.35;;;;;;;9.23;80.72;101482.06;7401296;19;20102;-67
2022/01/10 10:49:07;;;;;;;10.40;1.92;;;;;;;9.28;81.61;101477.25;7396464;19;20014;-68
2022/01/10 10:51:36;;;;;;;16.58;2.03;;;;;;;9.31;80.89;101481.41;7400565;19;20018;-67
2022/01/10 10:54:08;;;;;;;13.50;2.22;;;;;;;9.31;80.32;101481.41;7398804;19;20490;-68
2022/01/10 10:56:38;;;;;;;10.20;1.90;;;;;;;9.29;80.08;101476.28;7396307;19;20017;-67
2022/01/10 10:59:11;;;;;;;11.90;1.80;;;;;;;9.32;81.02;101486.53;7398291;19;20019;-68
2022/01/10 11:01:42;;;;;;;8.05;1.45;;;;;;;9.37;80.64;101486.13;7397520;19;20142;-70
2022/01/10 11:04:10;;;;;;;7.75;1.60;;;;;;;9.38;80.32;101493.06;7392993;19;20086;-68
2022/01/10 11:06:40;;;;;;;19.30;3.63;;;;;;;9.37;79.94;101502.72;7396509;19;20021;-66
2022/01/10 11:09:12;;;;;;;11.00;1.65;;;;;;;9.42;80.67;101507.59;7396030;19;20510;-67
2022/01/10 11:11:43;;;;;;;13.18;3.53;;;;;;;9.43;80.35;101520.59;7399385;19;20239;-67
2022/01/10 11:14:12;;;;;;;21.40;4.60;;;;;;;9.47;80.25;101520.34;7396676;19;20011;-67
2022/01/10 11:16:42;;;;;;;14.32;3.15;;;;;;;9.48;81.02;101522.84;7397206;19;20015;-66
2022/01/10 11:19:14;;;;;;;10.52;2.03;;;;;;;9.52;80.76;101526.88;7397814;19;20029;-66
2022/01/10 11:21:46;;;;;;;12.38;1.45;;;;;;;9.54;80.55;101529.38;7395290;19;20083;-67
2022/01/10 11:24:41;;;;;;;10.65;2.00;;;;;;;9.56;80.35;101528.28;7397675;19;20667;-68
2022/01/10 11:27:26;;;;;;;10.65;1.80;;;;;;;9.59;80.99;101529.84;7396119;19;20039;-67
2022/01/10 11:29:56;;;;;;;15.55;2.38;;;;;;;9.62;80.65;101524.31;7395398;19;20077;-67
2022/01/10 11:32:54;;;;;;;11.18;1.77;;;;;;;9.67;81.01;101527.38;7397502;19;20024;-66
2022/01/10 11:36:09;;;;;;;12.38;2.72;;;;;;;9.71;81.12;101520.91;7395825;19;20018;-66
2022/01/10 11:38:49;;;;;;;17.10;3.30;;;;;;;9.73;81.14;101517.19;7398375;19;20011;-67
2022/01/10 11:41:33;;;;;;;17.10;2.55;;;;;;;9.78;83.84;101514.16;7396441;19;20034;-66
2022/01/10 11:44:10;;;;;;;17.98;5.25;;;;;;;9.81;83.59;101519.97;7396122;19;20015;-67
2022/01/10 11:46:45;;;;;;;15.40;4.25;;;;;;;9.87;84.69;101516.00;7393539;19;20610;-66
2022/01/10 11:49:12;;;;;;;18.80;3.13;;;;;;;9.86;83.85;101519.59;7396844;19;20038;-66
2022/01/10 11:51:56;;;;;;;13.20;1.40;;;;;;;9.82;82.97;101524.28;7398926;19;20019;-66